This is the latest recevied weather packets stored in our database for station/object EDDV. If no packets are shown the sender has not sent any weather packets the latest 10 day(s).
| Time | Temp. | Humidity | Pressure | Rain* | Wind** | Luminosity | Snow |
|---|---|---|---|---|---|---|---|
| 1777565402 | 17.78° C | 20% | 1029 hPa | 0 mm | - | - | - |
| 1777561802 | 17.78° C | 20% | 1030 hPa | 0 mm | - | - | - |
| 1777558202 | 17.78° C | 20% | 1030 hPa | 0 mm | - | - | - |
| 1777554602 | 17.78° C | 20% | 1031 hPa | 0 mm | - | - | - |
| 1777551002 | 16.67° C | 20% | 1031 hPa | 0 mm | - | - | - |
| 1777547417 | 15.56° C | 20% | 1032 hPa | 0 mm | - | - | - |
| 1777543802 | 15° C | 20% | 1032 hPa | 0 mm | - | - | - |
| 1777540201 | 13.89° C | 20% | 1032 hPa | 0 mm | - | - | - |
| 1777536602 | 11.67° C | 30% | 1033 hPa | 0 mm | - | - | - |
| 1777533002 | 10° C | 45% | 1033 hPa | 0 mm | - | - | - |
| 1777529402 | 5.56° C | 70% | 1032 hPa | 0 mm | - | - | - |
| 1777525802 | 2.78° C | 80% | 1032 hPa | 0 mm | - | - | - |
| 1777518602 | 3.89° C | 75% | 1031 hPa | 0 mm | - | - | - |
| 1777515002 | 2.78° C | 80% | 1031 hPa | 0 mm | - | - | - |
| 1777511401 | 3.89° C | 80% | 1031 hPa | 0 mm | - | - | - |
| 1777507802 | 5.56° C | 70% | 1031 hPa | 0 mm | - | - | - |
| 1777504202 | 6.67° C | 65% | 1031 hPa | 0 mm | - | - | - |
| 1777489802 | 12.78° C | 30% | 1029 hPa | 0 mm | - | - | - |
| 1777486201 | 13.89° C | 25% | 1029 hPa | 0 mm | - | - | - |
| 1777482602 | 15° C | 20% | 1028 hPa | 0 mm | - | - | - |
| 1777479001 | 15.56° C | 15% | 1028 hPa | 0 mm | - | - | - |
| 1777475402 | 15.56° C | 15% | 1028 hPa | 0 mm | - | - | - |
| 1777471802 | 15.56° C | 15% | 1029 hPa | 0 mm | - | - | - |
| 1777468202 | 15° C | 20% | 1029 hPa | 0 mm | - | - | - |
| 1777464602 | 15° C | 25% | 1029 hPa | 0 mm | - | - | - |
* Rain latest 24 hours (hover to see other rain measurements)
** Current wind speed in m/s (hover to see current wind gust speed)